sensor_id;sensor_type;location;lat;lon;timestamp;pressure;altitude;pressure_sealevel;temperature;humidity
4469;BME280;2247;42.666;23.292;2023-01-31T00:01:08;93886.31;;;4.78;50.77
4469;BME280;2247;42.666;23.292;2023-01-31T00:03:35;93892.13;;;4.85;50.76
4469;BME280;2247;42.666;23.292;2023-01-31T00:06:17;93889.66;;;5.00;50.23
4469;BME280;2247;42.666;23.292;2023-01-31T00:08:44;93906.91;;;5.01;50.28
4469;BME280;2247;42.666;23.292;2023-01-31T00:11:13;93891.84;;;4.82;50.46
4469;BME280;2247;42.666;23.292;2023-01-31T00:13:40;93884.09;;;4.65;50.97
4469;BME280;2247;42.666;23.292;2023-01-31T00:16:11;93888.81;;;4.63;51.38
4469;BME280;2247;42.666;23.292;2023-01-31T00:18:39;93883.22;;;4.81;51.17
4469;BME280;2247;42.666;23.292;2023-01-31T00:21:08;93898.19;;;4.91;50.97
4469;BME280;2247;42.666;23.292;2023-01-31T00:23:35;93893.13;;;4.79;51.15
4469;BME280;2247;42.666;23.292;2023-01-31T00:26:10;93891.00;;;4.76;51.55
4469;BME280;2247;42.666;23.292;2023-01-31T00:28:37;93883.44;;;4.74;51.61
4469;BME280;2247;42.666;23.292;2023-01-31T00:31:06;93887.38;;;4.77;51.43
4469;BME280;2247;42.666;23.292;2023-01-31T00:33:39;93897.50;;;4.73;51.56
4469;BME280;2247;42.666;23.292;2023-01-31T00:36:07;93896.66;;;4.68;51.83
4469;BME280;2247;42.666;23.292;2023-01-31T00:38:35;93897.53;;;4.79;51.90
4469;BME280;2247;42.666;23.292;2023-01-31T00:41:02;93891.09;;;4.86;51.78
4469;BME280;2247;42.666;23.292;2023-01-31T00:43:30;93878.72;;;5.03;51.40
4469;BME280;2247;42.666;23.292;2023-01-31T00:45:58;93886.72;;;5.24;50.62
4469;BME280;2247;42.666;23.292;2023-01-31T00:48:25;93893.72;;;5.18;50.90
4469;BME280;2247;42.666;23.292;2023-01-31T00:50:55;93894.47;;;5.13;51.03
4469;BME280;2247;42.666;23.292;2023-01-31T00:53:21;93864.31;;;4.96;50.89
4469;BME280;2247;42.666;23.292;2023-01-31T00:55:50;93886.88;;;5.12;50.90
4469;BME280;2247;42.666;23.292;2023-01-31T00:58:19;93886.75;;;5.29;50.44
4469;BME280;2247;42.666;23.292;2023-01-31T01:00:47;93884.72;;;5.41;50.40
4469;BME280;2247;42.666;23.292;2023-01-31T01:03:14;93878.44;;;5.32;50.57
4469;BME280;2247;42.666;23.292;2023-01-31T01:05:41;93891.47;;;5.32;50.78
4469;BME280;2247;42.666;23.292;2023-01-31T01:08:09;93900.78;;;5.18;50.99
4469;BME280;2247;42.666;23.292;2023-01-31T01:10:37;93905.09;;;5.07;51.24
4469;BME280;2247;42.666;23.292;2023-01-31T01:13:03;93906.28;;;4.89;51.93
4469;BME280;2247;42.666;23.292;2023-01-31T01:15:31;93910.47;;;4.90;51.84
4469;BME280;2247;42.666;23.292;2023-01-31T01:17:58;93899.44;;;4.83;50.65
4469;BME280;2247;42.666;23.292;2023-01-31T01:20:25;93898.22;;;5.28;48.95
4469;BME280;2247;42.666;23.292;2023-01-31T01:22:52;93902.41;;;5.29;45.16
4469;BME280;2247;42.666;23.292;2023-01-31T01:25:20;93892.88;;;5.44;46.45
4469;BME280;2247;42.666;23.292;2023-01-31T01:27:49;93885.28;;;5.43;46.53
4469;BME280;2247;42.666;23.292;2023-01-31T01:30:17;93880.28;;;5.36;44.49
4469;BME280;2247;42.666;23.292;2023-01-31T01:32:44;93869.81;;;5.36;44.33
4469;BME280;2247;42.666;23.292;2023-01-31T01:35:12;93880.31;;;5.46;42.68
4469;BME280;2247;42.666;23.292;2023-01-31T01:37:38;93868.16;;;5.62;42.53
4469;BME280;2247;42.666;23.292;2023-01-31T01:40:07;93867.69;;;5.70;41.83
4469;BME280;2247;42.666;23.292;2023-01-31T01:42:36;93872.91;;;5.70;39.84
4469;BME280;2247;42.666;23.292;2023-01-31T01:45:08;93864.53;;;5.68;40.50
4469;BME280;2247;42.666;23.292;2023-01-31T01:47:43;93870.88;;;5.82;40.15
4469;BME280;2247;42.666;23.292;2023-01-31T01:50:14;93865.84;;;5.66;40.59
4469;BME280;2247;42.666;23.292;2023-01-31T01:52:46;93882.31;;;5.66;40.90
4469;BME280;2247;42.666;23.292;2023-01-31T01:55:18;93880.53;;;5.35;41.29
4469;BME280;2247;42.666;23.292;2023-01-31T01:57:51;93874.13;;;5.15;41.76
4469;BME280;2247;42.666;23.292;2023-01-31T02:00:21;93884.22;;;5.07;42.16
4469;BME280;2247;42.666;23.292;2023-01-31T02:02:51;93875.25;;;5.25;41.75
4469;BME280;2247;42.666;23.292;2023-01-31T02:05:21;93871.41;;;5.37;41.12
4469;BME280;2247;42.666;23.292;2023-01-31T02:07:51;93885.75;;;5.35;41.34
4469;BME280;2247;42.666;23.292;2023-01-31T02:10:22;93876.59;;;5.32;40.72
4469;BME280;2247;42.666;23.292;2023-01-31T02:12:51;93884.38;;;5.64;39.91
4469;BME280;2247;42.666;23.292;2023-01-31T02:15:19;93888.34;;;5.72;39.93
4469;BME280;2247;42.666;23.292;2023-01-31T02:17:46;93892.69;;;5.56;40.39
4469;BME280;2247;42.666;23.292;2023-01-31T02:20:58;93889.00;;;5.52;40.50
4469;BME280;2247;42.666;23.292;2023-01-31T02:24:29;93882.22;;;5.56;40.24
4469;BME280;2247;42.666;23.292;2023-01-31T02:27:28;93890.63;;;5.26;40.53
4469;BME280;2247;42.666;23.292;2023-01-31T02:33:12;93881.63;;;5.44;40.49
4469;BME280;2247;42.666;23.292;2023-01-31T02:36:09;93886.31;;;5.42;40.37
4469;BME280;2247;42.666;23.292;2023-01-31T02:38:51;93884.84;;;5.19;40.87
4469;BME280;2247;42.666;23.292;2023-01-31T02:41:29;93889.19;;;5.08;41.08
4469;BME280;2247;42.666;23.292;2023-01-31T02:44:01;93884.38;;;5.27;41.29
4469;BME280;2247;42.666;23.292;2023-01-31T02:46:51;93878.59;;;4.88;42.36
4469;BME280;2247;42.666;23.292;2023-01-31T02:49:25;93883.06;;;4.66;43.11
4469;BME280;2247;42.666;23.292;2023-01-31T02:52:09;93894.94;;;4.79;43.00
4469;BME280;2247;42.666;23.292;2023-01-31T02:54:57;93890.88;;;4.93;43.08
4469;BME280;2247;42.666;23.292;2023-01-31T02:57:45;93911.53;;;4.94;43.12
4469;BME280;2247;42.666;23.292;2023-01-31T03:00:12;93920.19;;;4.73;43.92
4469;BME280;2247;42.666;23.292;2023-01-31T03:02:40;93915.75;;;4.73;44.02
4469;BME280;2247;42.666;23.292;2023-01-31T03:05:13;93928.94;;;4.84;44.14
4469;BME280;2247;42.666;23.292;2023-01-31T03:07:41;93924.47;;;4.57;45.19
4469;BME280;2247;42.666;23.292;2023-01-31T03:10:18;93946.06;;;4.53;46.25
4469;BME280;2247;42.666;23.292;2023-01-31T03:12:57;93942.66;;;4.52;46.76
4469;BME280;2247;42.666;23.292;2023-01-31T03:15:39;93963.84;;;4.56;47.16
4469;BME280;2247;42.666;23.292;2023-01-31T03:18:43;93962.78;;;4.57;47.36
4469;BME280;2247;42.666;23.292;2023-01-31T03:21:16;93941.50;;;4.65;47.41
4469;BME280;2247;42.666;23.292;2023-01-31T03:23:50;93959.28;;;4.68;47.76
4469;BME280;2247;42.666;23.292;2023-01-31T03:26:19;93954.72;;;4.58;48.58
4469;BME280;2247;42.666;23.292;2023-01-31T03:28:48;93962.38;;;4.92;48.35
4469;BME280;2247;42.666;23.292;2023-01-31T03:31:22;93967.63;;;4.92;48.42
4469;BME280;2247;42.666;23.292;2023-01-31T03:33:53;93963.16;;;4.65;49.89
4469;BME280;2247;42.666;23.292;2023-01-31T03:36:30;93965.91;;;4.54;50.67
4469;BME280;2247;42.666;23.292;2023-01-31T03:39:07;93987.66;;;4.43;51.27
4469;BME280;2247;42.666;23.292;2023-01-31T03:41:45;93988.47;;;4.43;51.84
4469;BME280;2247;42.666;23.292;2023-01-31T03:44:19;94000.63;;;4.54;51.84
4469;BME280;2247;42.666;23.292;2023-01-31T03:46:58;93999.75;;;4.70;51.58
4469;BME280;2247;42.666;23.292;2023-01-31T03:49:28;94003.28;;;4.59;52.41
4469;BME280;2247;42.666;23.292;2023-01-31T03:52:03;94001.50;;;4.65;52.47
4469;BME280;2247;42.666;23.292;2023-01-31T03:54:36;93990.03;;;4.66;52.72
4469;BME280;2247;42.666;23.292;2023-01-31T03:57:11;94008.06;;;4.46;53.58
4469;BME280;2247;42.666;23.292;2023-01-31T03:59:43;94009.31;;;4.43;54.03
4469;BME280;2247;42.666;23.292;2023-01-31T04:02:13;94012.38;;;4.57;53.99
4469;BME280;2247;42.666;23.292;2023-01-31T04:04:46;94012.31;;;4.52;54.09
4469;BME280;2247;42.666;23.292;2023-01-31T04:07:16;94001.22;;;4.40;54.75
4469;BME280;2247;42.666;23.292;2023-01-31T04:09:43;93999.69;;;4.44;54.67
4469;BME280;2247;42.666;23.292;2023-01-31T04:12:11;94010.66;;;4.46;54.86
4469;BME280;2247;42.666;23.292;2023-01-31T04:14:40;94014.81;;;4.42;55.16
4469;BME280;2247;42.666;23.292;2023-01-31T04:17:08;94031.16;;;4.37;55.46
4469;BME280;2247;42.666;23.292;2023-01-31T04:19:35;94015.50;;;4.37;55.54
4469;BME280;2247;42.666;23.292;2023-01-31T04:22:01;94022.13;;;4.45;55.56
4469;BME280;2247;42.666;23.292;2023-01-31T04:24:29;94018.06;;;4.32;56.18
4469;BME280;2247;42.666;23.292;2023-01-31T04:26:56;94022.69;;;4.08;57.00
4469;BME280;2247;42.666;23.292;2023-01-31T04:29:25;94029.13;;;4.22;56.82
4469;BME280;2247;42.666;23.292;2023-01-31T04:31:52;94034.63;;;4.43;56.52
4469;BME280;2247;42.666;23.292;2023-01-31T04:34:20;94032.28;;;4.41;56.68
4469;BME280;2247;42.666;23.292;2023-01-31T04:36:47;94029.34;;;4.38;57.04
4469;BME280;2247;42.666;23.292;2023-01-31T04:39:15;94029.09;;;4.39;56.71
4469;BME280;2247;42.666;23.292;2023-01-31T04:41:44;94033.69;;;4.49;56.84
4469;BME280;2247;42.666;23.292;2023-01-31T04:44:11;94043.34;;;4.70;56.19
4469;BME280;2247;42.666;23.292;2023-01-31T04:46:39;94043.84;;;4.94;55.81
4469;BME280;2247;42.666;23.292;2023-01-31T04:49:06;94030.81;;;4.94;55.65
4469;BME280;2247;42.666;23.292;2023-01-31T04:51:33;94028.03;;;4.79;55.85
4469;BME280;2247;42.666;23.292;2023-01-31T04:54:00;94037.22;;;5.08;55.42
4469;BME280;2247;42.666;23.292;2023-01-31T04:56:30;94047.25;;;4.94;55.66
4469;BME280;2247;42.666;23.292;2023-01-31T04:58:59;94045.25;;;5.01;55.69
4469;BME280;2247;42.666;23.292;2023-01-31T05:01:28;94026.97;;;5.01;55.49
4469;BME280;2247;42.666;23.292;2023-01-31T05:03:58;94039.25;;;5.28;55.07
4469;BME280;2247;42.666;23.292;2023-01-31T05:06:33;94043.44;;;5.29;54.73
4469;BME280;2247;42.666;23.292;2023-01-31T05:29:51;94063.59;;;5.60;54.04
4469;BME280;2247;42.666;23.292;2023-01-31T05:32:25;94056.72;;;5.49;53.77
4469;BME280;2247;42.666;23.292;2023-01-31T05:34:52;94066.75;;;5.35;54.34
4469;BME280;2247;42.666;23.292;2023-01-31T05:37:19;94061.69;;;5.50;54.29
4469;BME280;2247;42.666;23.292;2023-01-31T05:39:46;94073.13;;;5.44;54.09
4469;BME280;2247;42.666;23.292;2023-01-31T05:42:13;94065.06;;;5.46;54.24
4469;BME280;2247;42.666;23.292;2023-01-31T05:44:40;94069.72;;;5.71;53.79
4469;BME280;2247;42.666;23.292;2023-01-31T05:47:09;94070.47;;;5.66;53.62
4469;BME280;2247;42.666;23.292;2023-01-31T05:49:44;94073.00;;;5.61;53.76
4469;BME280;2247;42.666;23.292;2023-01-31T05:52:12;94070.41;;;5.61;53.74
4469;BME280;2247;42.666;23.292;2023-01-31T05:54:42;94080.22;;;5.49;54.10
4469;BME280;2247;42.666;23.292;2023-01-31T05:57:09;94087.81;;;5.24;54.92
4469;BME280;2247;42.666;23.292;2023-01-31T05:59:35;94084.97;;;5.25;55.42
4469;BME280;2247;42.666;23.292;2023-01-31T06:02:03;94086.88;;;5.35;55.11
4469;BME280;2247;42.666;23.292;2023-01-31T06:04:31;94090.19;;;5.52;54.60
4469;BME280;2247;42.666;23.292;2023-01-31T06:06:58;94090.28;;;5.62;53.94
4469;BME280;2247;42.666;23.292;2023-01-31T06:09:25;94080.38;;;5.64;54.04
4469;BME280;2247;42.666;23.292;2023-01-31T06:14:27;94097.28;;;5.57;54.04
4469;BME280;2247;42.666;23.292;2023-01-31T06:16:54;94078.34;;;5.71;53.74
4469;BME280;2247;42.666;23.292;2023-01-31T06:19:21;94084.44;;;5.82;53.67
4469;BME280;2247;42.666;23.292;2023-01-31T06:21:51;94078.31;;;5.66;54.09
4469;BME280;2247;42.666;23.292;2023-01-31T06:24:19;94080.13;;;5.92;53.17
4469;BME280;2247;42.666;23.292;2023-01-31T06:26:46;94078.47;;;5.86;53.75
4469;BME280;2247;42.666;23.292;2023-01-31T06:29:13;94091.97;;;5.73;54.21
4469;BME280;2247;42.666;23.292;2023-01-31T06:31:43;94094.50;;;5.68;54.48
4469;BME280;2247;42.666;23.292;2023-01-31T06:34:10;94082.28;;;5.47;54.86
4469;BME280;2247;42.666;23.292;2023-01-31T06:36:37;94099.22;;;5.66;54.94
4469;BME280;2247;42.666;23.292;2023-01-31T06:39:05;94084.50;;;5.87;54.54
4469;BME280;2247;42.666;23.292;2023-01-31T06:41:33;94093.63;;;5.84;54.56
4469;BME280;2247;42.666;23.292;2023-01-31T06:43:59;94094.50;;;5.95;53.96
4469;BME280;2247;42.666;23.292;2023-01-31T06:46:26;94082.19;;;5.90;54.32
4469;BME280;2247;42.666;23.292;2023-01-31T06:48:53;94088.69;;;5.61;54.98
4469;BME280;2247;42.666;23.292;2023-01-31T06:51:20;94088.22;;;5.37;56.03
4469;BME280;2247;42.666;23.292;2023-01-31T06:53:48;94101.50;;;5.36;56.19
4469;BME280;2247;42.666;23.292;2023-01-31T06:56:19;94099.06;;;5.51;55.19
4469;BME280;2247;42.666;23.292;2023-01-31T06:58:49;94100.44;;;5.32;56.12
4469;BME280;2247;42.666;23.292;2023-01-31T07:01:19;94093.03;;;5.50;55.83
4469;BME280;2247;42.666;23.292;2023-01-31T07:03:48;94085.75;;;5.52;55.17
4469;BME280;2247;42.666;23.292;2023-01-31T07:06:16;94092.94;;;5.67;55.40
4469;BME280;2247;42.666;23.292;2023-01-31T07:08:44;94099.81;;;5.73;54.86
4469;BME280;2247;42.666;23.292;2023-01-31T07:11:12;94108.94;;;5.98;54.61
4469;BME280;2247;42.666;23.292;2023-01-31T07:13:43;94101.53;;;5.89;54.51
4469;BME280;2247;42.666;23.292;2023-01-31T07:16:12;94118.09;;;5.73;54.72
4469;BME280;2247;42.666;23.292;2023-01-31T07:18:41;94102.22;;;5.80;54.38
4469;BME280;2247;42.666;23.292;2023-01-31T07:21:08;94108.38;;;5.42;55.54
4469;BME280;2247;42.666;23.292;2023-01-31T07:23:36;94107.63;;;5.46;55.64
4469;BME280;2247;42.666;23.292;2023-01-31T07:26:03;94111.03;;;5.47;55.71
4469;BME280;2247;42.666;23.292;2023-01-31T07:28:30;94114.03;;;5.34;56.19
4469;BME280;2247;42.666;23.292;2023-01-31T07:31:04;94112.84;;;4.98;57.65
4469;BME280;2247;42.666;23.292;2023-01-31T07:33:31;94116.16;;;5.15;57.33
4469;BME280;2247;42.666;23.292;2023-01-31T07:36:00;94113.41;;;5.27;57.26
4469;BME280;2247;42.666;23.292;2023-01-31T07:38:27;94103.03;;;5.32;56.62
4469;BME280;2247;42.666;23.292;2023-01-31T07:40:57;94110.56;;;5.06;57.65
4469;BME280;2247;42.666;23.292;2023-01-31T07:43:25;94118.41;;;5.06;57.88
4469;BME280;2247;42.666;23.292;2023-01-31T07:45:53;94115.69;;;5.18;57.90
4469;BME280;2247;42.666;23.292;2023-01-31T07:48:21;94117.38;;;5.07;58.32
4469;BME280;2247;42.666;23.292;2023-01-31T07:50:49;94126.53;;;4.88;58.73
4469;BME280;2247;42.666;23.292;2023-01-31T07:53:16;94129.56;;;4.80;59.06
4469;BME280;2247;42.666;23.292;2023-01-31T07:55:43;94128.19;;;4.94;58.97
4469;BME280;2247;42.666;23.292;2023-01-31T07:58:12;94118.34;;;5.23;58.27
4469;BME280;2247;42.666;23.292;2023-01-31T08:00:40;94121.53;;;5.52;57.47
4469;BME280;2247;42.666;23.292;2023-01-31T08:03:28;94119.13;;;5.72;57.29
4469;BME280;2247;42.666;23.292;2023-01-31T08:06:00;94135.13;;;5.54;57.58
4469;BME280;2247;42.666;23.292;2023-01-31T08:08:28;94121.97;;;5.44;58.13
4469;BME280;2247;42.666;23.292;2023-01-31T08:10:55;94110.94;;;5.37;58.38
4469;BME280;2247;42.666;23.292;2023-01-31T08:13:22;94107.72;;;5.30;58.33
4469;BME280;2247;42.666;23.292;2023-01-31T08:15:51;94106.13;;;5.29;58.64
4469;BME280;2247;42.666;23.292;2023-01-31T08:18:19;94112.34;;;5.23;58.65
4469;BME280;2247;42.666;23.292;2023-01-31T08:20:47;94111.56;;;5.49;57.99
4469;BME280;2247;42.666;23.292;2023-01-31T08:23:14;94119.84;;;5.41;58.42
4469;BME280;2247;42.666;23.292;2023-01-31T08:25:41;94117.00;;;5.69;57.88
4469;BME280;2247;42.666;23.292;2023-01-31T08:28:10;94104.66;;;6.18;56.74
4469;BME280;2247;42.666;23.292;2023-01-31T08:30:38;94099.38;;;6.50;56.04
4469;BME280;2247;42.666;23.292;2023-01-31T08:33:06;94100.03;;;7.30;55.91
4469;BME280;2247;42.666;23.292;2023-01-31T08:35:33;94094.59;;;7.57;54.85
4469;BME280;2247;42.666;23.292;2023-01-31T08:38:02;94098.84;;;7.83;56.62
4469;BME280;2247;42.666;23.292;2023-01-31T08:40:29;94097.81;;;8.19;53.38
4469;BME280;2247;42.666;23.292;2023-01-31T08:42:57;94091.78;;;8.59;52.12
4469;BME280;2247;42.666;23.292;2023-01-31T08:45:25;94096.81;;;8.36;49.65
4469;BME280;2247;42.666;23.292;2023-01-31T08:47:54;94097.28;;;8.02;50.30
4469;BME280;2247;42.666;23.292;2023-01-31T08:50:23;94107.25;;;7.80;51.08
4469;BME280;2247;42.666;23.292;2023-01-31T08:52:53;94110.06;;;7.53;51.77
4469;BME280;2247;42.666;23.292;2023-01-31T08:55:23;94099.00;;;7.41;52.30
4469;BME280;2247;42.666;23.292;2023-01-31T08:57:51;94097.91;;;7.27;52.45
4469;BME280;2247;42.666;23.292;2023-01-31T09:00:19;94097.59;;;7.13;52.58
4469;BME280;2247;42.666;23.292;2023-01-31T09:02:51;94101.31;;;7.27;52.28
4469;BME280;2247;42.666;23.292;2023-01-31T09:05:18;94088.75;;;7.24;52.34
4469;BME280;2247;42.666;23.292;2023-01-31T09:07:45;94090.03;;;7.11;52.57
4469;BME280;2247;42.666;23.292;2023-01-31T09:10:12;94095.28;;;7.22;51.96
4469;BME280;2247;42.666;23.292;2023-01-31T09:12:44;94082.81;;;6.82;52.00
4469;BME280;2247;42.666;23.292;2023-01-31T09:15:16;94105.03;;;6.79;52.63
4469;BME280;2247;42.666;23.292;2023-01-31T09:17:45;94112.56;;;7.18;52.48
4469;BME280;2247;42.666;23.292;2023-01-31T09:20:13;94087.66;;;7.20;51.49
4469;BME280;2247;42.666;23.292;2023-01-31T09:22:42;94099.97;;;7.15;51.75
4469;BME280;2247;42.666;23.292;2023-01-31T09:25:12;94085.59;;;7.22;51.79
4469;BME280;2247;42.666;23.292;2023-01-31T09:27:45;94094.25;;;7.23;51.51
4469;BME280;2247;42.666;23.292;2023-01-31T09:30:14;94099.50;;;7.28;51.22
4469;BME280;2247;42.666;23.292;2023-01-31T09:32:44;94092.44;;;7.33;51.25
4469;BME280;2247;42.666;23.292;2023-01-31T09:35:17;94089.81;;;7.33;51.70
4469;BME280;2247;42.666;23.292;2023-01-31T09:37:46;94077.72;;;7.12;51.85
4469;BME280;2247;42.666;23.292;2023-01-31T09:40:19;94090.59;;;7.29;51.39
4469;BME280;2247;42.666;23.292;2023-01-31T09:42:54;94078.53;;;7.28;51.03
4469;BME280;2247;42.666;23.292;2023-01-31T09:45:32;94071.41;;;7.08;51.41
4469;BME280;2247;42.666;23.292;2023-01-31T09:48:02;94048.03;;;6.91;51.96
4469;BME280;2247;42.666;23.292;2023-01-31T09:50:34;94065.69;;;7.26;51.15
4469;BME280;2247;42.666;23.292;2023-01-31T09:55:42;94046.34;;;7.32;50.71
4469;BME280;2247;42.666;23.292;2023-01-31T09:58:19;94053.41;;;7.37;50.78
4469;BME280;2247;42.666;23.292;2023-01-31T10:00:56;94048.13;;;7.17;51.26
4469;BME280;2247;42.666;23.292;2023-01-31T10:06:09;94048.34;;;7.05;51.23
4469;BME280;2247;42.666;23.292;2023-01-31T10:08:47;94051.47;;;6.97;51.48
4469;BME280;2247;42.666;23.292;2023-01-31T10:11:28;94028.75;;;6.55;52.61
4469;BME280;2247;42.666;23.292;2023-01-31T10:14:17;94030.81;;;6.48;53.20
4469;BME280;2247;42.666;23.292;2023-01-31T10:16:56;94028.22;;;6.53;53.47
4469;BME280;2247;42.666;23.292;2023-01-31T10:19:32;94047.41;;;6.74;52.54
4469;BME280;2247;42.666;23.292;2023-01-31T10:22:05;94047.31;;;6.54;52.63
4469;BME280;2247;42.666;23.292;2023-01-31T10:24:37;94027.19;;;6.59;52.80
4469;BME280;2247;42.666;23.292;2023-01-31T10:27:13;94033.75;;;6.62;52.50
4469;BME280;2247;42.666;23.292;2023-01-31T10:29:46;94032.00;;;6.78;52.31
4469;BME280;2247;42.666;23.292;2023-01-31T10:32:20;94028.63;;;6.82;51.49
4469;BME280;2247;42.666;23.292;2023-01-31T10:34:52;94035.97;;;6.90;50.71
4469;BME280;2247;42.666;23.292;2023-01-31T10:37:29;94046.09;;;6.71;51.48
4469;BME280;2247;42.666;23.292;2023-01-31T10:40:02;94027.19;;;6.59;52.42
4469;BME280;2247;42.666;23.292;2023-01-31T10:45:01;94008.38;;;6.67;51.85
4469;BME280;2247;42.666;23.292;2023-01-31T10:47:32;94032.72;;;6.63;52.17
4469;BME280;2247;42.666;23.292;2023-01-31T10:52:48;94024.63;;;6.69;52.06
4469;BME280;2247;42.666;23.292;2023-01-31T10:55:41;94043.41;;;6.56;52.54
4469;BME280;2247;42.666;23.292;2023-01-31T10:58:13;94047.09;;;6.60;52.50
4469;BME280;2247;42.666;23.292;2023-01-31T11:00:43;94053.66;;;6.63;52.70
4469;BME280;2247;42.666;23.292;2023-01-31T11:03:12;94049.94;;;6.54;53.01
4469;BME280;2247;42.666;23.292;2023-01-31T11:05:46;94041.28;;;6.48;53.09
4469;BME280;2247;42.666;23.292;2023-01-31T11:08:24;94049.53;;;6.30;53.72
4469;BME280;2247;42.666;23.292;2023-01-31T11:10:54;94045.47;;;6.07;54.88
4469;BME280;2247;42.666;23.292;2023-01-31T11:13:22;94042.09;;;6.12;55.12
4469;BME280;2247;42.666;23.292;2023-01-31T11:15:52;94046.66;;;6.31;54.78
4469;BME280;2247;42.666;23.292;2023-01-31T11:18:28;94048.72;;;6.24;55.01
4469;BME280;2247;42.666;23.292;2023-01-31T11:20:57;94051.22;;;6.09;55.30
4469;BME280;2247;42.666;23.292;2023-01-31T11:23:26;94050.50;;;6.19;55.66
4469;BME280;2247;42.666;23.292;2023-01-31T11:25:54;94052.19;;;6.35;55.55
4469;BME280;2247;42.666;23.292;2023-01-31T11:28:28;94058.34;;;6.19;55.79
4469;BME280;2247;42.666;23.292;2023-01-31T11:31:01;94056.72;;;6.08;56.57
4469;BME280;2247;42.666;23.292;2023-01-31T11:33:41;94038.00;;;6.26;56.11
4469;BME280;2247;42.666;23.292;2023-01-31T11:36:15;94054.47;;;6.21;56.30
4469;BME280;2247;42.666;23.292;2023-01-31T11:38:47;94049.25;;;5.89;57.29
4469;BME280;2247;42.666;23.292;2023-01-31T11:41:29;94061.78;;;5.87;57.80
4469;BME280;2247;42.666;23.292;2023-01-31T11:44:10;94049.09;;;6.01;57.43
4469;BME280;2247;42.666;23.292;2023-01-31T11:46:43;94060.78;;;6.30;57.01
4469;BME280;2247;42.666;23.292;2023-01-31T11:49:15;94059.50;;;6.33;56.74
4469;BME280;2247;42.666;23.292;2023-01-31T11:51:46;94048.13;;;6.12;57.32
4469;BME280;2247;42.666;23.292;2023-01-31T11:54:17;94039.22;;;5.81;57.48
4469;BME280;2247;42.666;23.292;2023-01-31T11:56:45;94063.09;;;5.90;58.04
4469;BME280;2247;42.666;23.292;2023-01-31T11:59:17;94059.19;;;5.87;58.11
4469;BME280;2247;42.666;23.292;2023-01-31T12:01:49;94056.72;;;5.81;58.42
4469;BME280;2247;42.666;23.292;2023-01-31T12:04:19;94060.41;;;5.80;58.58
4469;BME280;2247;42.666;23.292;2023-01-31T12:06:58;94045.84;;;5.62;58.50
4469;BME280;2247;42.666;23.292;2023-01-31T12:09:29;94050.59;;;5.65;58.59
4469;BME280;2247;42.666;23.292;2023-01-31T12:11:58;94071.69;;;5.85;58.78
4469;BME280;2247;42.666;23.292;2023-01-31T12:14:36;94063.81;;;5.80;58.73
4469;BME280;2247;42.666;23.292;2023-01-31T12:17:10;94062.94;;;5.75;58.97
4469;BME280;2247;42.666;23.292;2023-01-31T12:19:50;94070.31;;;5.78;58.66
4469;BME280;2247;42.666;23.292;2023-01-31T12:22:23;94049.44;;;5.83;58.25
4469;BME280;2247;42.666;23.292;2023-01-31T12:25:01;94058.56;;;5.80;58.31
4469;BME280;2247;42.666;23.292;2023-01-31T12:27:40;94081.00;;;5.76;58.40
4469;BME280;2247;42.666;23.292;2023-01-31T12:30:22;94062.31;;;5.89;57.46
4469;BME280;2247;42.666;23.292;2023-01-31T12:33:01;94049.03;;;5.96;57.21
4469;BME280;2247;42.666;23.292;2023-01-31T12:35:43;94037.50;;;5.92;56.72
4469;BME280;2247;42.666;23.292;2023-01-31T12:38:24;94046.13;;;5.92;56.97
4469;BME280;2247;42.666;23.292;2023-01-31T12:41:03;94047.59;;;5.83;57.25
4469;BME280;2247;42.666;23.292;2023-01-31T12:43:48;94048.88;;;5.81;56.84
4469;BME280;2247;42.666;23.292;2023-01-31T12:46:24;94058.13;;;5.88;56.94
4469;BME280;2247;42.666;23.292;2023-01-31T12:49:05;94055.41;;;6.10;56.57
4469;BME280;2247;42.666;23.292;2023-01-31T12:51:42;94033.13;;;6.03;55.90
4469;BME280;2247;42.666;23.292;2023-01-31T12:54:33;94068.66;;;5.99;56.21
4469;BME280;2247;42.666;23.292;2023-01-31T12:57:17;94068.16;;;6.02;56.21
4469;BME280;2247;42.666;23.292;2023-01-31T12:59:55;94048.06;;;5.75;56.44
4469;BME280;2247;42.666;23.292;2023-01-31T13:02:38;94069.72;;;5.98;56.53
4469;BME280;2247;42.666;23.292;2023-01-31T13:05:15;94067.41;;;6.01;56.32
4469;BME280;2247;42.666;23.292;2023-01-31T13:07:49;94062.38;;;5.95;56.30
4469;BME280;2247;42.666;23.292;2023-01-31T13:10:27;94058.50;;;6.02;56.23
4469;BME280;2247;42.666;23.292;2023-01-31T13:12:57;94056.16;;;6.01;56.15
4469;BME280;2247;42.666;23.292;2023-01-31T13:15:30;94046.38;;;5.91;55.74
4469;BME280;2247;42.666;23.292;2023-01-31T13:18:02;94052.69;;;5.68;56.31
4469;BME280;2247;42.666;23.292;2023-01-31T13:20:34;94074.97;;;6.03;56.08
4469;BME280;2247;42.666;23.292;2023-01-31T13:25:45;94064.31;;;5.82;56.23
4469;BME280;2247;42.666;23.292;2023-01-31T13:28:18;94065.25;;;5.93;56.27
4469;BME280;2247;42.666;23.292;2023-01-31T13:30:51;94074.59;;;5.89;56.46
4469;BME280;2247;42.666;23.292;2023-01-31T13:33:28;94078.34;;;5.98;56.46
4469;BME280;2247;42.666;23.292;2023-01-31T13:36:07;94075.69;;;6.30;55.88
4469;BME280;2247;42.666;23.292;2023-01-31T13:38:38;94078.31;;;6.30;55.48
4469;BME280;2247;42.666;23.292;2023-01-31T13:41:10;94071.78;;;5.96;56.49
4469;BME280;2247;42.666;23.292;2023-01-31T13:43:39;94077.47;;;5.87;57.00
4469;BME280;2247;42.666;23.292;2023-01-31T13:46:08;94078.25;;;5.88;57.29
4469;BME280;2247;42.666;23.292;2023-01-31T13:48:41;94063.44;;;5.99;56.43
4469;BME280;2247;42.666;23.292;2023-01-31T13:51:15;94079.03;;;5.88;56.83
4469;BME280;2247;42.666;23.292;2023-01-31T13:53:48;94079.28;;;5.87;57.29
4469;BME280;2247;42.666;23.292;2023-01-31T13:56:21;94078.25;;;5.88;57.58
4469;BME280;2247;42.666;23.292;2023-01-31T13:58:51;94079.19;;;6.09;56.83
4469;BME280;2247;42.666;23.292;2023-01-31T14:01:21;94079.03;;;5.88;56.22
4469;BME280;2247;42.666;23.292;2023-01-31T14:04:22;94085.50;;;6.08;56.00
4469;BME280;2247;42.666;23.292;2023-01-31T14:07:19;94079.69;;;6.01;56.03
4469;BME280;2247;42.666;23.292;2023-01-31T14:10:25;94085.56;;;6.23;55.36
4469;BME280;2247;42.666;23.292;2023-01-31T14:13:38;94082.31;;;5.74;56.14
4469;BME280;2247;42.666;23.292;2023-01-31T14:16:38;94083.56;;;5.71;56.30
4469;BME280;2247;42.666;23.292;2023-01-31T14:22:21;94098.72;;;5.96;55.72
4469;BME280;2247;42.666;23.292;2023-01-31T14:24:59;94095.81;;;5.92;55.92
4469;BME280;2247;42.666;23.292;2023-01-31T14:27:31;94080.50;;;5.79;55.37
4469;BME280;2247;42.666;23.292;2023-01-31T14:30:08;94102.66;;;5.99;55.45
4469;BME280;2247;42.666;23.292;2023-01-31T14:32:39;94106.13;;;6.09;55.05